sensor_id;sensor_type;location;lat;lon;timestamp;P1;durP1;ratioP1;P2;durP2;ratioP2
19643;SDS011;9970;-36.854;174.870;2022-07-19T00:00:23;3.30;;;3.30;;
19643;SDS011;9970;-36.854;174.870;2022-07-19T00:02:56;3.50;;;3.50;;
19643;SDS011;9970;-36.854;174.870;2022-07-19T00:05:29;3.30;;;3.30;;
19643;SDS011;9970;-36.854;174.870;2022-07-19T00:08:06;3.10;;;3.10;;
19643;SDS011;9970;-36.854;174.870;2022-07-19T00:10:40;3.20;;;3.20;;
19643;SDS011;9970;-36.854;174.870;2022-07-19T00:13:13;3.30;;;3.30;;
19643;SDS011;9970;-36.854;174.870;2022-07-19T00:15:46;3.40;;;3.40;;
19643;SDS011;9970;-36.854;174.870;2022-07-19T00:18:19;3.40;;;3.40;;
19643;SDS011;9970;-36.854;174.870;2022-07-19T00:20:52;3.27;;;3.27;;
19643;SDS011;9970;-36.854;174.870;2022-07-19T00:23:29;3.20;;;3.20;;
19643;SDS011;9970;-36.854;174.870;2022-07-19T00:26:02;3.30;;;3.30;;
19643;SDS011;9970;-36.854;174.870;2022-07-19T00:28:36;3.50;;;3.50;;
19643;SDS011;9970;-36.854;174.870;2022-07-19T00:31:09;3.80;;;3.80;;
19643;SDS011;9970;-36.854;174.870;2022-07-19T00:33:42;3.40;;;3.40;;
19643;SDS011;9970;-36.854;174.870;2022-07-19T00:36:15;3.60;;;3.60;;
19643;SDS011;9970;-36.854;174.870;2022-07-19T00:38:49;3.60;;;3.60;;
19643;SDS011;9970;-36.854;174.870;2022-07-19T00:41:26;3.50;;;3.50;;
19643;SDS011;9970;-36.854;174.870;2022-07-19T00:43:59;3.40;;;3.40;;
19643;SDS011;9970;-36.854;174.870;2022-07-19T00:46:34;3.50;;;3.50;;
19643;SDS011;9970;-36.854;174.870;2022-07-19T00:49:08;3.70;;;3.70;;
19643;SDS011;9970;-36.854;174.870;2022-07-19T00:51:41;3.60;;;3.60;;
19643;SDS011;9970;-36.854;174.870;2022-07-19T00:54:16;4.00;;;4.00;;
19643;SDS011;9970;-36.854;174.870;2022-07-19T00:56:50;4.30;;;4.30;;
19643;SDS011;9970;-36.854;174.870;2022-07-19T00:59:24;3.70;;;3.70;;
19643;SDS011;9970;-36.854;174.870;2022-07-19T01:01:58;3.67;;;3.67;;
19643;SDS011;9970;-36.854;174.870;2022-07-19T01:04:31;3.50;;;3.50;;
19643;SDS011;9970;-36.854;174.870;2022-07-19T01:07:06;3.47;;;3.47;;
19643;SDS011;9970;-36.854;174.870;2022-07-19T01:09:39;3.40;;;3.40;;
19643;SDS011;9970;-36.854;174.870;2022-07-19T01:12:14;3.30;;;3.30;;
19643;SDS011;9970;-36.854;174.870;2022-07-19T01:14:48;3.50;;;3.50;;
19643;SDS011;9970;-36.854;174.870;2022-07-19T01:17:23;3.50;;;3.50;;
19643;SDS011;9970;-36.854;174.870;2022-07-19T01:19:56;3.40;;;3.40;;
19643;SDS011;9970;-36.854;174.870;2022-07-19T01:22:29;3.40;;;3.40;;
19643;SDS011;9970;-36.854;174.870;2022-07-19T01:25:03;3.40;;;3.40;;
19643;SDS011;9970;-36.854;174.870;2022-07-19T01:27:40;3.40;;;3.40;;
19643;SDS011;9970;-36.854;174.870;2022-07-19T01:30:14;3.70;;;3.70;;
19643;SDS011;9970;-36.854;174.870;2022-07-19T01:32:49;3.50;;;3.50;;
19643;SDS011;9970;-36.854;174.870;2022-07-19T01:35:23;3.60;;;3.60;;
19643;SDS011;9970;-36.854;174.870;2022-07-19T01:37:57;3.47;;;3.47;;
19643;SDS011;9970;-36.854;174.870;2022-07-19T01:40:30;4.10;;;4.10;;
19643;SDS011;9970;-36.854;174.870;2022-07-19T01:43:03;3.70;;;3.70;;
19643;SDS011;9970;-36.854;174.870;2022-07-19T01:45:38;3.50;;;3.50;;
19643;SDS011;9970;-36.854;174.870;2022-07-19T01:48:11;3.70;;;3.70;;
19643;SDS011;9970;-36.854;174.870;2022-07-19T01:50:44;3.60;;;3.60;;
19643;SDS011;9970;-36.854;174.870;2022-07-19T01:53:21;3.80;;;3.80;;
19643;SDS011;9970;-36.854;174.870;2022-07-19T01:55:54;3.40;;;3.40;;
19643;SDS011;9970;-36.854;174.870;2022-07-19T01:58:27;3.40;;;3.40;;
19643;SDS011;9970;-36.854;174.870;2022-07-19T02:01:01;3.30;;;3.30;;
19643;SDS011;9970;-36.854;174.870;2022-07-19T02:03:34;3.27;;;3.27;;
19643;SDS011;9970;-36.854;174.870;2022-07-19T02:06:07;3.30;;;3.30;;
19643;SDS011;9970;-36.854;174.870;2022-07-19T02:08:40;3.20;;;3.20;;
19643;SDS011;9970;-36.854;174.870;2022-07-19T02:11:16;3.13;;;3.13;;
19643;SDS011;9970;-36.854;174.870;2022-07-19T02:14:08;3.20;;;3.20;;
19643;SDS011;9970;-36.854;174.870;2022-07-19T02:16:41;3.00;;;3.00;;
19643;SDS011;9970;-36.854;174.870;2022-07-19T02:19:14;3.20;;;3.20;;
19643;SDS011;9970;-36.854;174.870;2022-07-19T02:21:47;3.13;;;3.13;;
19643;SDS011;9970;-36.854;174.870;2022-07-19T02:24:20;3.30;;;3.30;;
19643;SDS011;9970;-36.854;174.870;2022-07-19T02:26:54;3.10;;;3.10;;
19643;SDS011;9970;-36.854;174.870;2022-07-19T02:29:27;3.10;;;3.10;;
19643;SDS011;9970;-36.854;174.870;2022-07-19T02:32:00;3.13;;;3.13;;
19643;SDS011;9970;-36.854;174.870;2022-07-19T02:34:34;3.20;;;3.20;;
19643;SDS011;9970;-36.854;174.870;2022-07-19T02:37:07;3.40;;;3.40;;
19643;SDS011;9970;-36.854;174.870;2022-07-19T02:39:41;3.20;;;3.20;;
19643;SDS011;9970;-36.854;174.870;2022-07-19T02:42:14;3.30;;;3.30;;
19643;SDS011;9970;-36.854;174.870;2022-07-19T02:44:47;3.70;;;3.70;;
19643;SDS011;9970;-36.854;174.870;2022-07-19T02:47:20;3.40;;;3.40;;
19643;SDS011;9970;-36.854;174.870;2022-07-19T02:49:53;3.50;;;3.50;;
19643;SDS011;9970;-36.854;174.870;2022-07-19T02:52:28;3.30;;;3.30;;
19643;SDS011;9970;-36.854;174.870;2022-07-19T02:55:05;3.40;;;3.40;;
19643;SDS011;9970;-36.854;174.870;2022-07-19T02:57:39;3.20;;;3.20;;
19643;SDS011;9970;-36.854;174.870;2022-07-19T03:00:12;3.57;;;3.57;;
19643;SDS011;9970;-36.854;174.870;2022-07-19T03:02:46;3.10;;;3.10;;
19643;SDS011;9970;-36.854;174.870;2022-07-19T03:05:19;3.00;;;3.00;;
19643;SDS011;9970;-36.854;174.870;2022-07-19T03:07:52;3.20;;;3.20;;
19643;SDS011;9970;-36.854;174.870;2022-07-19T03:10:25;3.07;;;3.07;;
19643;SDS011;9970;-36.854;174.870;2022-07-19T03:12:58;3.10;;;3.10;;
19643;SDS011;9970;-36.854;174.870;2022-07-19T03:15:31;2.90;;;2.90;;
19643;SDS011;9970;-36.854;174.870;2022-07-19T03:18:05;2.90;;;2.90;;
19643;SDS011;9970;-36.854;174.870;2022-07-19T03:20:38;3.07;;;3.07;;
19643;SDS011;9970;-36.854;174.870;2022-07-19T03:23:11;3.00;;;3.00;;
19643;SDS011;9970;-36.854;174.870;2022-07-19T03:25:45;3.10;;;3.10;;
19643;SDS011;9970;-36.854;174.870;2022-07-19T03:28:18;2.93;;;2.93;;
19643;SDS011;9970;-36.854;174.870;2022-07-19T03:30:51;3.00;;;3.00;;
19643;SDS011;9970;-36.854;174.870;2022-07-19T03:33:24;2.80;;;2.80;;
19643;SDS011;9970;-36.854;174.870;2022-07-19T03:35:58;2.90;;;2.90;;
19643;SDS011;9970;-36.854;174.870;2022-07-19T03:38:31;2.90;;;2.90;;
19643;SDS011;9970;-36.854;174.870;2022-07-19T03:41:04;2.90;;;2.90;;
19643;SDS011;9970;-36.854;174.870;2022-07-19T03:43:40;2.80;;;2.80;;
19643;SDS011;9970;-36.854;174.870;2022-07-19T03:46:13;3.00;;;3.00;;
19643;SDS011;9970;-36.854;174.870;2022-07-19T03:48:46;3.10;;;3.10;;
19643;SDS011;9970;-36.854;174.870;2022-07-19T03:51:19;2.90;;;2.90;;
19643;SDS011;9970;-36.854;174.870;2022-07-19T03:53:53;3.00;;;3.00;;
19643;SDS011;9970;-36.854;174.870;2022-07-19T03:56:26;3.00;;;3.00;;
19643;SDS011;9970;-36.854;174.870;2022-07-19T03:58:59;3.00;;;3.00;;
19643;SDS011;9970;-36.854;174.870;2022-07-19T04:01:33;2.80;;;2.80;;
19643;SDS011;9970;-36.854;174.870;2022-07-19T04:04:08;2.90;;;2.90;;
19643;SDS011;9970;-36.854;174.870;2022-07-19T04:06:41;2.80;;;2.80;;
19643;SDS011;9970;-36.854;174.870;2022-07-19T04:09:14;2.60;;;2.60;;
19643;SDS011;9970;-36.854;174.870;2022-07-19T04:11:47;2.40;;;2.40;;
19643;SDS011;9970;-36.854;174.870;2022-07-19T04:14:25;2.50;;;2.50;;
19643;SDS011;9970;-36.854;174.870;2022-07-19T04:16:58;2.50;;;2.50;;
19643;SDS011;9970;-36.854;174.870;2022-07-19T04:19:32;2.80;;;2.80;;
19643;SDS011;9970;-36.854;174.870;2022-07-19T04:22:05;2.50;;;2.50;;
19643;SDS011;9970;-36.854;174.870;2022-07-19T04:24:42;2.60;;;2.60;;
19643;SDS011;9970;-36.854;174.870;2022-07-19T04:27:15;2.50;;;2.50;;
19643;SDS011;9970;-36.854;174.870;2022-07-19T04:29:48;2.60;;;2.60;;
19643;SDS011;9970;-36.854;174.870;2022-07-19T04:32:21;2.60;;;2.60;;
19643;SDS011;9970;-36.854;174.870;2022-07-19T04:34:54;2.63;;;2.63;;
19643;SDS011;9970;-36.854;174.870;2022-07-19T04:37:27;2.50;;;2.50;;
19643;SDS011;9970;-36.854;174.870;2022-07-19T04:40:00;2.60;;;2.60;;
19643;SDS011;9970;-36.854;174.870;2022-07-19T04:42:33;2.57;;;2.57;;
19643;SDS011;9970;-36.854;174.870;2022-07-19T04:45:06;2.40;;;2.40;;
19643;SDS011;9970;-36.854;174.870;2022-07-19T04:47:39;2.40;;;2.40;;
19643;SDS011;9970;-36.854;174.870;2022-07-19T04:50:12;2.50;;;2.50;;
19643;SDS011;9970;-36.854;174.870;2022-07-19T04:52:45;2.50;;;2.50;;
19643;SDS011;9970;-36.854;174.870;2022-07-19T04:55:18;2.47;;;2.47;;
19643;SDS011;9970;-36.854;174.870;2022-07-19T04:57:51;2.30;;;2.30;;
19643;SDS011;9970;-36.854;174.870;2022-07-19T05:00:25;2.40;;;2.40;;
19643;SDS011;9970;-36.854;174.870;2022-07-19T05:02:58;2.30;;;2.30;;
19643;SDS011;9970;-36.854;174.870;2022-07-19T05:05:31;2.43;;;2.43;;
19643;SDS011;9970;-36.854;174.870;2022-07-19T05:08:04;2.50;;;2.50;;
19643;SDS011;9970;-36.854;174.870;2022-07-19T05:10:37;2.40;;;2.40;;
19643;SDS011;9970;-36.854;174.870;2022-07-19T05:13:14;2.30;;;2.30;;
19643;SDS011;9970;-36.854;174.870;2022-07-19T05:15:47;2.30;;;2.30;;
19643;SDS011;9970;-36.854;174.870;2022-07-19T05:18:20;2.50;;;2.50;;
19643;SDS011;9970;-36.854;174.870;2022-07-19T05:20:53;2.40;;;2.40;;
19643;SDS011;9970;-36.854;174.870;2022-07-19T05:23:26;2.20;;;2.20;;
19643;SDS011;9970;-36.854;174.870;2022-07-19T05:25:59;2.20;;;2.20;;
19643;SDS011;9970;-36.854;174.870;2022-07-19T05:28:32;2.20;;;2.20;;
19643;SDS011;9970;-36.854;174.870;2022-07-19T05:31:05;2.40;;;2.40;;
19643;SDS011;9970;-36.854;174.870;2022-07-19T05:33:39;2.30;;;2.30;;
19643;SDS011;9970;-36.854;174.870;2022-07-19T05:36:12;2.20;;;2.20;;
19643;SDS011;9970;-36.854;174.870;2022-07-19T05:38:45;2.10;;;2.10;;
19643;SDS011;9970;-36.854;174.870;2022-07-19T05:41:18;2.10;;;2.10;;
19643;SDS011;9970;-36.854;174.870;2022-07-19T05:43:51;2.00;;;2.00;;
19643;SDS011;9970;-36.854;174.870;2022-07-19T05:46:25;2.10;;;2.10;;
19643;SDS011;9970;-36.854;174.870;2022-07-19T05:48:58;2.10;;;2.10;;
19643;SDS011;9970;-36.854;174.870;2022-07-19T05:51:31;2.00;;;2.00;;
19643;SDS011;9970;-36.854;174.870;2022-07-19T05:54:04;2.00;;;2.00;;
19643;SDS011;9970;-36.854;174.870;2022-07-19T05:56:37;2.00;;;2.00;;
19643;SDS011;9970;-36.854;174.870;2022-07-19T05:59:10;2.10;;;2.10;;
19643;SDS011;9970;-36.854;174.870;2022-07-19T06:01:47;2.00;;;2.00;;
19643;SDS011;9970;-36.854;174.870;2022-07-19T06:04:21;2.07;;;2.07;;
19643;SDS011;9970;-36.854;174.870;2022-07-19T06:06:54;2.10;;;2.10;;
19643;SDS011;9970;-36.854;174.870;2022-07-19T06:09:27;1.97;;;1.97;;
19643;SDS011;9970;-36.854;174.870;2022-07-19T06:12:00;1.90;;;1.90;;
19643;SDS011;9970;-36.854;174.870;2022-07-19T06:14:33;1.90;;;1.90;;
19643;SDS011;9970;-36.854;174.870;2022-07-19T06:17:07;1.80;;;1.80;;
19643;SDS011;9970;-36.854;174.870;2022-07-19T06:19:39;1.70;;;1.70;;
19643;SDS011;9970;-36.854;174.870;2022-07-19T06:22:12;1.70;;;1.70;;
19643;SDS011;9970;-36.854;174.870;2022-07-19T06:24:45;1.70;;;1.70;;
19643;SDS011;9970;-36.854;174.870;2022-07-19T06:27:19;1.80;;;1.80;;
19643;SDS011;9970;-36.854;174.870;2022-07-19T06:29:56;1.80;;;1.80;;
19643;SDS011;9970;-36.854;174.870;2022-07-19T06:32:30;1.80;;;1.80;;
19643;SDS011;9970;-36.854;174.870;2022-07-19T06:35:08;1.70;;;1.70;;
19643;SDS011;9970;-36.854;174.870;2022-07-19T06:37:41;1.67;;;1.67;;
19643;SDS011;9970;-36.854;174.870;2022-07-19T06:40:15;1.63;;;1.63;;
19643;SDS011;9970;-36.854;174.870;2022-07-19T06:42:48;1.90;;;1.90;;
19643;SDS011;9970;-36.854;174.870;2022-07-19T06:45:21;1.80;;;1.80;;
19643;SDS011;9970;-36.854;174.870;2022-07-19T06:47:54;1.90;;;1.90;;
19643;SDS011;9970;-36.854;174.870;2022-07-19T06:50:27;2.00;;;2.00;;
19643;SDS011;9970;-36.854;174.870;2022-07-19T06:53:05;1.80;;;1.80;;
19643;SDS011;9970;-36.854;174.870;2022-07-19T06:55:39;1.77;;;1.77;;
19643;SDS011;9970;-36.854;174.870;2022-07-19T06:58:12;1.80;;;1.80;;
19643;SDS011;9970;-36.854;174.870;2022-07-19T07:00:45;1.90;;;1.90;;
19643;SDS011;9970;-36.854;174.870;2022-07-19T07:03:21;1.80;;;1.80;;
19643;SDS011;9970;-36.854;174.870;2022-07-19T07:05:55;1.80;;;1.80;;
19643;SDS011;9970;-36.854;174.870;2022-07-19T07:08:28;1.70;;;1.70;;
19643;SDS011;9970;-36.854;174.870;2022-07-19T07:11:02;1.87;;;1.87;;
19643;SDS011;9970;-36.854;174.870;2022-07-19T07:13:35;1.73;;;1.73;;
19643;SDS011;9970;-36.854;174.870;2022-07-19T07:16:09;1.70;;;1.70;;
19643;SDS011;9970;-36.854;174.870;2022-07-19T07:18:42;1.80;;;1.80;;
19643;SDS011;9970;-36.854;174.870;2022-07-19T07:21:15;1.70;;;1.70;;
19643;SDS011;9970;-36.854;174.870;2022-07-19T07:23:49;1.70;;;1.70;;
19643;SDS011;9970;-36.854;174.870;2022-07-19T07:26:22;1.80;;;1.80;;
19643;SDS011;9970;-36.854;174.870;2022-07-19T07:28:57;1.80;;;1.80;;
19643;SDS011;9970;-36.854;174.870;2022-07-19T07:31:30;1.80;;;1.80;;
19643;SDS011;9970;-36.854;174.870;2022-07-19T07:34:04;1.70;;;1.70;;
19643;SDS011;9970;-36.854;174.870;2022-07-19T07:36:37;1.60;;;1.60;;
19643;SDS011;9970;-36.854;174.870;2022-07-19T07:39:11;1.80;;;1.80;;
19643;SDS011;9970;-36.854;174.870;2022-07-19T07:41:44;1.80;;;1.80;;
19643;SDS011;9970;-36.854;174.870;2022-07-19T07:44:18;1.60;;;1.60;;
19643;SDS011;9970;-36.854;174.870;2022-07-19T07:46:51;1.77;;;1.77;;
19643;SDS011;9970;-36.854;174.870;2022-07-19T07:49:24;1.60;;;1.60;;
19643;SDS011;9970;-36.854;174.870;2022-07-19T07:51:57;1.40;;;1.40;;
19643;SDS011;9970;-36.854;174.870;2022-07-19T07:54:30;1.20;;;1.20;;
19643;SDS011;9970;-36.854;174.870;2022-07-19T07:57:04;1.00;;;1.00;;
19643;SDS011;9970;-36.854;174.870;2022-07-19T07:59:38;0.97;;;0.97;;
19643;SDS011;9970;-36.854;174.870;2022-07-19T08:02:11;1.10;;;1.10;;
19643;SDS011;9970;-36.854;174.870;2022-07-19T08:04:44;1.10;;;1.10;;
19643;SDS011;9970;-36.854;174.870;2022-07-19T08:07:17;0.97;;;0.97;;
19643;SDS011;9970;-36.854;174.870;2022-07-19T08:09:50;1.00;;;1.00;;
19643;SDS011;9970;-36.854;174.870;2022-07-19T08:12:23;1.00;;;1.00;;
19643;SDS011;9970;-36.854;174.870;2022-07-19T08:14:56;0.90;;;0.90;;
19643;SDS011;9970;-36.854;174.870;2022-07-19T08:17:29;1.00;;;1.00;;
19643;SDS011;9970;-36.854;174.870;2022-07-19T08:20:02;0.90;;;0.90;;
19643;SDS011;9970;-36.854;174.870;2022-07-19T08:22:35;0.90;;;0.90;;
19643;SDS011;9970;-36.854;174.870;2022-07-19T08:25:09;0.90;;;0.90;;
19643;SDS011;9970;-36.854;174.870;2022-07-19T08:27:43;0.90;;;0.90;;
19643;SDS011;9970;-36.854;174.870;2022-07-19T08:30:16;0.90;;;0.90;;
19643;SDS011;9970;-36.854;174.870;2022-07-19T08:32:49;0.80;;;0.80;;
19643;SDS011;9970;-36.854;174.870;2022-07-19T08:35:23;0.80;;;0.80;;
19643;SDS011;9970;-36.854;174.870;2022-07-19T08:37:56;0.80;;;0.80;;
19643;SDS011;9970;-36.854;174.870;2022-07-19T08:40:30;0.80;;;0.80;;
19643;SDS011;9970;-36.854;174.870;2022-07-19T08:43:04;0.90;;;0.90;;
19643;SDS011;9970;-36.854;174.870;2022-07-19T08:45:41;0.80;;;0.80;;
19643;SDS011;9970;-36.854;174.870;2022-07-19T08:48:15;0.90;;;0.90;;
19643;SDS011;9970;-36.854;174.870;2022-07-19T08:50:49;0.80;;;0.80;;
19643;SDS011;9970;-36.854;174.870;2022-07-19T08:53:23;0.80;;;0.80;;
19643;SDS011;9970;-36.854;174.870;2022-07-19T08:55:57;0.80;;;0.80;;
19643;SDS011;9970;-36.854;174.870;2022-07-19T08:58:39;0.90;;;0.90;;
19643;SDS011;9970;-36.854;174.870;2022-07-19T09:01:13;0.90;;;0.90;;
19643;SDS011;9970;-36.854;174.870;2022-07-19T09:06:45;0.80;;;0.80;;
19643;SDS011;9970;-36.854;174.870;2022-07-19T09:09:23;0.80;;;0.80;;
19643;SDS011;9970;-36.854;174.870;2022-07-19T09:12:04;0.90;;;0.90;;
19643;SDS011;9970;-36.854;174.870;2022-07-19T09:14:37;0.90;;;0.90;;
19643;SDS011;9970;-36.854;174.870;2022-07-19T09:17:10;0.80;;;0.80;;
19643;SDS011;9970;-36.854;174.870;2022-07-19T09:19:45;0.80;;;0.80;;
19643;SDS011;9970;-36.854;174.870;2022-07-19T09:22:20;0.80;;;0.80;;
19643;SDS011;9970;-36.854;174.870;2022-07-19T09:24:54;0.90;;;0.90;;
19643;SDS011;9970;-36.854;174.870;2022-07-19T09:27:27;0.90;;;0.90;;
19643;SDS011;9970;-36.854;174.870;2022-07-19T09:30:00;0.90;;;0.90;;
19643;SDS011;9970;-36.854;174.870;2022-07-19T09:32:33;0.83;;;0.83;;
19643;SDS011;9970;-36.854;174.870;2022-07-19T09:35:09;0.90;;;0.90;;
19643;SDS011;9970;-36.854;174.870;2022-07-19T09:37:47;0.90;;;0.90;;
19643;SDS011;9970;-36.854;174.870;2022-07-19T09:40:20;0.90;;;0.90;;
19643;SDS011;9970;-36.854;174.870;2022-07-19T09:42:53;0.90;;;0.90;;
19643;SDS011;9970;-36.854;174.870;2022-07-19T09:45:26;0.90;;;0.90;;
19643;SDS011;9970;-36.854;174.870;2022-07-19T09:48:01;0.90;;;0.90;;
19643;SDS011;9970;-36.854;174.870;2022-07-19T09:50:34;0.90;;;0.90;;
19643;SDS011;9970;-36.854;174.870;2022-07-19T09:53:11;0.90;;;0.90;;
19643;SDS011;9970;-36.854;174.870;2022-07-19T09:55:44;0.80;;;0.80;;
19643;SDS011;9970;-36.854;174.870;2022-07-19T09:58:18;0.90;;;0.90;;
19643;SDS011;9970;-36.854;174.870;2022-07-19T10:00:51;0.90;;;0.90;;
19643;SDS011;9970;-36.854;174.870;2022-07-19T10:03:24;0.90;;;0.90;;
19643;SDS011;9970;-36.854;174.870;2022-07-19T10:05:58;0.90;;;0.90;;
19643;SDS011;9970;-36.854;174.870;2022-07-19T10:08:30;0.80;;;0.80;;
19643;SDS011;9970;-36.854;174.870;2022-07-19T10:11:08;0.90;;;0.90;;
19643;SDS011;9970;-36.854;174.870;2022-07-19T10:13:41;0.90;;;0.90;;
19643;SDS011;9970;-36.854;174.870;2022-07-19T10:16:15;0.90;;;0.90;;
19643;SDS011;9970;-36.854;174.870;2022-07-19T10:18:55;0.90;;;0.90;;
19643;SDS011;9970;-36.854;174.870;2022-07-19T10:21:23;0.90;;;0.90;;
19643;SDS011;9970;-36.854;174.870;2022-07-19T10:23:57;0.90;;;0.90;;
19643;SDS011;9970;-36.854;174.870;2022-07-19T10:26:36;0.90;;;0.90;;
19643;SDS011;9970;-36.854;174.870;2022-07-19T10:29:11;0.90;;;0.90;;
19643;SDS011;9970;-36.854;174.870;2022-07-19T10:32:01;0.90;;;0.90;;
19643;SDS011;9970;-36.854;174.870;2022-07-19T10:34:28;0.90;;;0.90;;
19643;SDS011;9970;-36.854;174.870;2022-07-19T10:36:57;0.90;;;0.90;;
19643;SDS011;9970;-36.854;174.870;2022-07-19T10:39:33;0.90;;;0.90;;
19643;SDS011;9970;-36.854;174.870;2022-07-19T10:42:18;0.83;;;0.83;;
19643;SDS011;9970;-36.854;174.870;2022-07-19T10:50:14;0.90;;;0.90;;
19643;SDS011;9970;-36.854;174.870;2022-07-19T10:52:51;0.90;;;0.90;;
19643;SDS011;9970;-36.854;174.870;2022-07-19T10:55:24;0.90;;;0.90;;
19643;SDS011;9970;-36.854;174.870;2022-07-19T11:00:47;0.90;;;0.90;;
19643;SDS011;9970;-36.854;174.870;2022-07-19T11:05:59;0.90;;;0.90;;
19643;SDS011;9970;-36.854;174.870;2022-07-19T11:08:34;0.80;;;0.80;;
19643;SDS011;9970;-36.854;174.870;2022-07-19T11:11:09;0.80;;;0.80;;
19643;SDS011;9970;-36.854;174.870;2022-07-19T11:13:44;0.90;;;0.90;;
19643;SDS011;9970;-36.854;174.870;2022-07-19T11:16:18;0.90;;;0.90;;
19643;SDS011;9970;-36.854;174.870;2022-07-19T11:19:07;0.87;;;0.87;;
19643;SDS011;9970;-36.854;174.870;2022-07-19T11:21:37;0.80;;;0.80;;
19643;SDS011;9970;-36.854;174.870;2022-07-19T11:24:11;0.80;;;0.80;;
19643;SDS011;9970;-36.854;174.870;2022-07-19T11:26:44;0.90;;;0.90;;
19643;SDS011;9970;-36.854;174.870;2022-07-19T11:29:17;0.80;;;0.80;;
19643;SDS011;9970;-36.854;174.870;2022-07-19T11:31:50;0.80;;;0.80;;
19643;SDS011;9970;-36.854;174.870;2022-07-19T11:34:25;0.80;;;0.80;;
19643;SDS011;9970;-36.854;174.870;2022-07-19T11:36:58;0.80;;;0.80;;
19643;SDS011;9970;-36.854;174.870;2022-07-19T11:39:46;1.00;;;1.00;;
19643;SDS011;9970;-36.854;174.870;2022-07-19T11:42:27;0.90;;;0.90;;
19643;SDS011;9970;-36.854;174.870;2022-07-19T11:47:46;0.83;;;0.83;;
19643;SDS011;9970;-36.854;174.870;2022-07-19T11:50:21;0.90;;;0.90;;
19643;SDS011;9970;-36.854;174.870;2022-07-19T11:52:56;0.90;;;0.90;;
19643;SDS011;9970;-36.854;174.870;2022-07-19T11:55:39;0.90;;;0.90;;
19643;SDS011;9970;-36.854;174.870;2022-07-19T11:58:08;0.83;;;0.83;;
19643;SDS011;9970;-36.854;174.870;2022-07-19T12:00:41;0.90;;;0.90;;
19643;SDS011;9970;-36.854;174.870;2022-07-19T12:03:15;1.00;;;1.00;;
19643;SDS011;9970;-36.854;174.870;2022-07-19T12:06:00;0.90;;;0.90;;
19643;SDS011;9970;-36.854;174.870;2022-07-19T12:08:40;0.90;;;0.90;;
19643;SDS011;9970;-36.854;174.870;2022-07-19T12:11:24;0.80;;;0.80;;
19643;SDS011;9970;-36.854;174.870;2022-07-19T12:14:02;0.90;;;0.90;;
19643;SDS011;9970;-36.854;174.870;2022-07-19T12:16:40;0.80;;;0.80;;
19643;SDS011;9970;-36.854;174.870;2022-07-19T12:19:14;0.90;;;0.90;;
19643;SDS011;9970;-36.854;174.870;2022-07-19T12:21:50;0.90;;;0.90;;
19643;SDS011;9970;-36.854;174.870;2022-07-19T12:24:24;0.80;;;0.80;;
19643;SDS011;9970;-36.854;174.870;2022-07-19T12:27:06;0.90;;;0.90;;
19643;SDS011;9970;-36.854;174.870;2022-07-19T12:32:26;0.90;;;0.90;;
19643;SDS011;9970;-36.854;174.870;2022-07-19T12:35:07;0.80;;;0.80;;
19643;SDS011;9970;-36.854;174.870;2022-07-19T12:37:44;0.80;;;0.80;;
19643;SDS011;9970;-36.854;174.870;2022-07-19T12:40:22;0.80;;;0.80;;
19643;SDS011;9970;-36.854;174.870;2022-07-19T12:42:56;0.80;;;0.80;;
19643;SDS011;9970;-36.854;174.870;2022-07-19T12:45:35;0.80;;;0.80;;
19643;SDS011;9970;-36.854;174.870;2022-07-19T12:48:11;0.83;;;0.83;;
19643;SDS011;9970;-36.854;174.870;2022-07-19T12:50:46;0.80;;;0.80;;
19643;SDS011;9970;-36.854;174.870;2022-07-19T12:53:20;0.80;;;0.80;;
19643;SDS011;9970;-36.854;174.870;2022-07-19T12:55:53;0.80;;;0.80;;
19643;SDS011;9970;-36.854;174.870;2022-07-19T12:58:26;0.90;;;0.90;;
19643;SDS011;9970;-36.854;174.870;2022-07-19T13:01:16;0.83;;;0.83;;
19643;SDS011;9970;-36.854;174.870;2022-07-19T13:03:50;0.80;;;0.80;;
19643;SDS011;9970;-36.854;174.870;2022-07-19T13:06:23;0.80;;;0.80;;
19643;SDS011;9970;-36.854;174.870;2022-07-19T13:08:56;0.90;;;0.90;;
19643;SDS011;9970;-36.854;174.870;2022-07-19T13:11:29;0.80;;;0.80;;
19643;SDS011;9970;-36.854;174.870;2022-07-19T13:14:02;0.90;;;0.90;;
19643;SDS011;9970;-36.854;174.870;2022-07-19T13:16:36;0.90;;;0.90;;
19643;SDS011;9970;-36.854;174.870;2022-07-19T13:19:10;0.90;;;0.90;;
19643;SDS011;9970;-36.854;174.870;2022-07-19T13:21:43;0.80;;;0.80;;
19643;SDS011;9970;-36.854;174.870;2022-07-19T13:24:16;0.80;;;0.80;;
19643;SDS011;9970;-36.854;174.870;2022-07-19T13:26:50;0.80;;;0.80;;
19643;SDS011;9970;-36.854;174.870;2022-07-19T13:29:23;0.90;;;0.90;;
19643;SDS011;9970;-36.854;174.870;2022-07-19T13:31:57;0.90;;;0.90;;
19643;SDS011;9970;-36.854;174.870;2022-07-19T13:34:32;0.90;;;0.90;;
19643;SDS011;9970;-36.854;174.870;2022-07-19T13:37:05;0.90;;;0.90;;
19643;SDS011;9970;-36.854;174.870;2022-07-19T13:39:38;0.80;;;0.80;;
19643;SDS011;9970;-36.854;174.870;2022-07-19T13:42:12;0.90;;;0.90;;
19643;SDS011;9970;-36.854;174.870;2022-07-19T13:44:45;0.90;;;0.90;;
19643;SDS011;9970;-36.854;174.870;2022-07-19T13:47:18;0.80;;;0.80;;
19643;SDS011;9970;-36.854;174.870;2022-07-19T13:49:52;0.87;;;0.87;;
19643;SDS011;9970;-36.854;174.870;2022-07-19T13:52:25;0.80;;;0.80;;
19643;SDS011;9970;-36.854;174.870;2022-07-19T13:54:58;0.80;;;0.80;;
19643;SDS011;9970;-36.854;174.870;2022-07-19T13:57:35;0.90;;;0.90;;
19643;SDS011;9970;-36.854;174.870;2022-07-19T14:00:08;0.90;;;0.90;;
19643;SDS011;9970;-36.854;174.870;2022-07-19T14:02:42;0.80;;;0.80;;
19643;SDS011;9970;-36.854;174.870;2022-07-19T14:05:16;0.80;;;0.80;;
19643;SDS011;9970;-36.854;174.870;2022-07-19T14:07:49;0.87;;;0.87;;
19643;SDS011;9970;-36.854;174.870;2022-07-19T14:10:22;0.80;;;0.80;;
19643;SDS011;9970;-36.854;174.870;2022-07-19T14:12:55;0.90;;;0.90;;
19643;SDS011;9970;-36.854;174.870;2022-07-19T14:15:30;0.80;;;0.80;;
19643;SDS011;9970;-36.854;174.870;2022-07-19T14:18:03;0.80;;;0.80;;
19643;SDS011;9970;-36.854;174.870;2022-07-19T14:20:39;0.90;;;0.90;;
19643;SDS011;9970;-36.854;174.870;2022-07-19T14:23:11;0.80;;;0.80;;
19643;SDS011;9970;-36.854;174.870;2022-07-19T14:25:44;0.90;;;0.90;;
19643;SDS011;9970;-36.854;174.870;2022-07-19T14:28:19;0.80;;;0.80;;
19643;SDS011;9970;-36.854;174.870;2022-07-19T14:30:56;0.90;;;0.90;;
19643;SDS011;9970;-36.854;174.870;2022-07-19T14:33:29;0.80;;;0.80;;
19643;SDS011;9970;-36.854;174.870;2022-07-19T14:36:03;0.90;;;0.90;;
19643;SDS011;9970;-36.854;174.870;2022-07-19T14:38:36;0.90;;;0.90;;
19643;SDS011;9970;-36.854;174.870;2022-07-19T14:41:09;0.90;;;0.90;;
19643;SDS011;9970;-36.854;174.870;2022-07-19T14:43:42;0.80;;;0.80;;
19643;SDS011;9970;-36.854;174.870;2022-07-19T14:46:15;0.80;;;0.80;;
19643;SDS011;9970;-36.854;174.870;2022-07-19T14:48:50;0.90;;;0.90;;
19643;SDS011;9970;-36.854;174.870;2022-07-19T14:51:23;0.83;;;0.83;;
19643;SDS011;9970;-36.854;174.870;2022-07-19T14:54:00;0.80;;;0.80;;
19643;SDS011;9970;-36.854;174.870;2022-07-19T14:56:34;0.90;;;0.90;;
19643;SDS011;9970;-36.854;174.870;2022-07-19T14:59:07;0.90;;;0.90;;
19643;SDS011;9970;-36.854;174.870;2022-07-19T15:01:40;0.83;;;0.83;;
19643;SDS011;9970;-36.854;174.870;2022-07-19T15:04:13;0.80;;;0.80;;
19643;SDS011;9970;-36.854;174.870;2022-07-19T15:06:46;0.90;;;0.90;;
19643;SDS011;9970;-36.854;174.870;2022-07-19T15:09:19;0.80;;;0.80;;
19643;SDS011;9970;-36.854;174.870;2022-07-19T15:11:52;0.80;;;0.80;;
19643;SDS011;9970;-36.854;174.870;2022-07-19T15:14:27;0.90;;;0.90;;
19643;SDS011;9970;-36.854;174.870;2022-07-19T15:17:00;0.80;;;0.80;;
19643;SDS011;9970;-36.854;174.870;2022-07-19T15:19:36;0.80;;;0.80;;